Lejre, Denmark
Current Conditions -  °F | °C
As of 3:20 PM on Sunday 23 Nov 2014 (Local Time) from EKRK Reporting Station
Light Rain Light Rain  
Wind Chill: 39°   Ceiling: 1500
Heat Index: 46°   Visibility: 3mi
Dew Point: 43°   Wind: 22mph
Humidity: 87%   Direction: 130°SE
Pressure: 30.12"   Gusts: NA
Location:  55.6°N, 11.97°E
Report Text: EKRK 231420Z 13019KT 5000 -RA SCT009 BKN015 08/06 Q1020
Loading
Personal Weather Stations






























Interactive Weather Map New forecast layout! Learn more

10-Day Weather Forecast

Advertisements
Track Severe Weather on mobile